createdAt,value
2023-05-14T00:02:36.182Z,36.07
2023-05-14T00:05:24.926Z,36.07
2023-05-14T00:08:13.288Z,36.43
2023-05-14T00:11:01.601Z,36.37
2023-05-14T00:13:50.450Z,36.00
2023-05-14T00:16:40.127Z,35.40
2023-05-14T00:19:28.569Z,35.30
2023-05-14T00:22:16.946Z,35.67
2023-05-14T00:25:06.521Z,36.40
2023-05-14T00:27:54.922Z,34.57
2023-05-14T00:30:43.401Z,35.60
2023-05-14T00:33:33.654Z,35.87
2023-05-14T00:36:22.084Z,36.37
2023-05-14T00:39:11.059Z,35.90
2023-05-14T00:41:59.957Z,36.60
2023-05-14T00:44:48.331Z,38.10
2023-05-14T00:47:37.425Z,36.07
2023-05-14T00:50:27.559Z,34.70
2023-05-14T00:53:16.048Z,36.00
2023-05-14T00:56:04.664Z,35.70
2023-05-14T00:58:53.336Z,36.60
2023-05-14T01:01:41.866Z,35.37
2023-05-14T01:04:30.369Z,34.97
2023-05-14T01:07:24.453Z,34.83
2023-05-14T01:10:15.982Z,35.10
2023-05-14T01:13:09.465Z,36.03
2023-05-14T01:15:58.730Z,34.50
2023-05-14T01:18:48.619Z,36.50
2023-05-14T01:21:44.426Z,34.63
2023-05-14T01:24:32.890Z,36.27
2023-05-14T01:27:27.326Z,34.20
2023-05-14T01:30:22.710Z,35.57
2023-05-14T01:33:12.647Z,36.33
2023-05-14T01:36:01.329Z,35.20
2023-05-14T01:38:51.543Z,35.30
2023-05-14T01:41:41.053Z,36.03
2023-05-14T01:44:29.427Z,35.07
2023-05-14T01:47:17.842Z,35.57
2023-05-14T01:50:07.154Z,35.90
2023-05-14T01:52:56.584Z,35.97
2023-05-14T01:55:46.612Z,36.70
2023-05-14T01:58:35.200Z,36.37
2023-05-14T02:01:23.950Z,36.23
2023-05-14T02:04:12.424Z,38.30
2023-05-14T02:07:03.126Z,36.37
2023-05-14T02:09:51.510Z,39.50
2023-05-14T02:12:41.421Z,35.50
2023-05-14T02:15:29.923Z,37.63
2023-05-14T02:18:18.351Z,37.20
2023-05-14T02:21:06.785Z,35.07
2023-05-14T02:23:56.159Z,36.07
2023-05-14T02:26:44.601Z,36.37
2023-05-14T02:29:34.389Z,37.20
2023-05-14T02:32:23.365Z,35.10
2023-05-14T02:35:12.163Z,35.67
2023-05-14T02:38:00.822Z,36.80
2023-05-14T02:40:49.772Z,37.40
2023-05-14T02:43:38.124Z,37.60
2023-05-14T02:46:27.933Z,35.30
2023-05-14T02:49:16.826Z,36.50
2023-05-14T02:52:05.616Z,35.40
2023-05-14T02:54:54.023Z,34.47
2023-05-14T02:57:42.393Z,36.40
2023-05-14T03:00:30.781Z,37.60
2023-05-14T03:03:21.440Z,35.57
2023-05-14T03:06:10.169Z,37.47
2023-05-14T03:08:58.525Z,40.33
2023-05-14T03:11:46.983Z,35.27
2023-05-14T03:14:35.372Z,34.67
2023-05-14T03:17:23.805Z,35.10
2023-05-14T03:20:14.395Z,35.60
2023-05-14T03:23:02.879Z,35.17
2023-05-14T03:25:51.311Z,35.90
2023-05-14T03:28:39.742Z,35.90
2023-05-14T03:31:28.233Z,35.90
2023-05-14T03:34:18.058Z,34.87
2023-05-14T03:37:07.775Z,36.73
2023-05-14T03:39:56.141Z,35.27
2023-05-14T03:42:44.550Z,34.73
2023-05-14T03:45:33.281Z,37.50
2023-05-14T03:48:21.753Z,36.17
2023-05-14T03:51:10.216Z,35.97
2023-05-14T03:53:59.952Z,36.10
2023-05-14T03:56:49.030Z,35.67
2023-05-14T03:59:37.357Z,43.33
2023-05-14T04:02:26.154Z,35.90
2023-05-14T04:05:40.113Z,36.77
2023-05-14T04:08:28.461Z,35.30
2023-05-14T04:11:19.345Z,35.37
2023-05-14T04:14:07.789Z,33.70
2023-05-14T04:16:56.192Z,36.60
2023-05-14T04:19:44.564Z,34.90
2023-05-14T04:22:33.138Z,37.07
2023-05-14T04:25:21.994Z,35.30
2023-05-14T04:28:11.933Z,36.47
2023-05-14T04:31:00.312Z,35.57
2023-05-14T04:33:48.757Z,34.77
2023-05-14T04:36:37.231Z,36.90
2023-05-14T04:39:25.978Z,36.10
2023-05-14T04:42:14.332Z,39.00
2023-05-14T04:45:05.270Z,34.07
2023-05-14T04:47:53.755Z,34.10
2023-05-14T04:50:42.160Z,34.97
2023-05-14T04:53:30.467Z,35.07
2023-05-14T04:56:19.008Z,33.93
2023-05-14T04:59:07.358Z,35.77
2023-05-14T05:01:57.103Z,36.37
2023-05-14T05:04:45.432Z,35.77
2023-05-14T05:07:33.793Z,35.27
2023-05-14T05:10:22.607Z,35.27
2023-05-14T05:13:11.173Z,37.50
2023-05-14T05:15:59.723Z,36.40
2023-05-14T05:18:49.681Z,35.30
2023-05-14T05:21:40.279Z,33.67
2023-05-14T05:24:28.613Z,33.97
2023-05-14T05:27:16.974Z,38.53
2023-05-14T05:30:06.537Z,39.33
2023-05-14T05:32:57.024Z,36.10
2023-05-14T05:35:48.255Z,35.40
2023-05-14T05:38:36.635Z,35.57
2023-05-14T05:41:24.926Z,35.30
2023-05-14T05:44:13.286Z,33.37
2023-05-14T05:47:01.731Z,35.63
2023-05-14T05:49:50.655Z,35.87
2023-05-14T05:52:40.596Z,36.10
2023-05-14T05:55:29.735Z,33.60
2023-05-14T05:58:18.145Z,36.37
2023-05-14T06:01:06.612Z,36.73
2023-05-14T06:03:54.949Z,37.07
2023-05-14T06:06:43.502Z,37.03
2023-05-14T06:09:33.216Z,36.80
2023-05-14T06:12:21.820Z,35.27
2023-05-14T06:15:12.124Z,36.20
2023-05-14T06:18:00.753Z,36.27
2023-05-14T06:20:49.133Z,34.90
2023-05-14T06:23:37.841Z,37.00
2023-05-14T06:26:27.615Z,34.87
2023-05-14T06:29:15.924Z,38.70
2023-05-14T06:32:05.209Z,36.20
2023-05-14T06:34:53.574Z,34.93
2023-05-14T06:37:41.904Z,35.30
2023-05-14T06:40:30.272Z,35.80
2023-05-14T06:43:20.090Z,35.80
2023-05-14T06:46:08.451Z,34.87
2023-05-14T06:48:59.197Z,36.50
2023-05-14T06:51:48.097Z,35.27
2023-05-14T06:54:36.440Z,37.40
2023-05-14T06:57:24.814Z,35.60
2023-05-14T07:00:16.113Z,36.80
2023-05-14T07:03:04.537Z,35.67
2023-05-14T07:05:52.891Z,35.30
2023-05-14T07:08:41.352Z,37.00
2023-05-14T07:11:29.788Z,35.80
2023-05-14T07:14:18.278Z,33.47
2023-05-14T07:17:08.053Z,36.33
2023-05-14T07:19:56.569Z,35.10
2023-05-14T07:22:45.054Z,36.50
2023-05-14T07:25:33.891Z,35.90
2023-05-14T07:28:22.241Z,34.97
2023-05-14T07:31:10.875Z,36.13
2023-05-14T07:34:00.665Z,35.20
2023-05-14T07:36:49.165Z,36.93
2023-05-14T07:39:37.538Z,37.20
2023-05-14T07:42:35.981Z,36.30
2023-05-14T07:45:25.557Z,35.37
2023-05-14T07:48:13.970Z,35.67
2023-05-14T07:51:03.781Z,37.10
2023-05-14T07:53:52.120Z,38.87
2023-05-14T07:56:40.441Z,36.37
2023-05-14T07:59:28.859Z,36.67
2023-05-14T08:02:17.627Z,40.70
2023-05-14T08:05:06.978Z,37.67
2023-05-14T08:07:56.779Z,40.20
2023-05-14T08:10:45.268Z,38.03
2023-05-14T08:13:33.713Z,38.40
2023-05-14T08:16:22.108Z,39.20
2023-05-14T08:19:10.524Z,37.17
2023-05-14T08:21:58.954Z,40.47
2023-05-14T08:24:48.888Z,37.00
2023-05-14T08:27:37.412Z,37.57
2023-05-14T08:30:25.997Z,37.60
2023-05-14T08:33:14.716Z,38.30
2023-05-14T08:36:03.142Z,37.27
2023-05-14T08:38:51.606Z,37.80
2023-05-14T08:41:41.354Z,38.77
2023-05-14T08:44:34.371Z,38.87
2023-05-14T08:47:24.015Z,38.20
2023-05-14T08:50:12.679Z,39.00
2023-05-14T08:53:01.137Z,38.07
2023-05-14T08:55:51.392Z,38.70
2023-05-14T08:58:41.148Z,39.03
2023-05-14T09:01:30.050Z,39.70
2023-05-14T09:04:22.246Z,39.40
2023-05-14T09:07:11.414Z,37.00
2023-05-14T09:10:00.372Z,38.23
2023-05-14T09:12:48.741Z,38.50
2023-05-14T09:15:38.816Z,38.33
2023-05-14T09:18:27.189Z,41.60
2023-05-14T09:21:15.907Z,38.23
2023-05-14T09:24:04.764Z,36.87
2023-05-14T09:26:54.451Z,40.60
2023-05-14T09:29:43.509Z,43.53
2023-05-14T09:32:38.472Z,38.20
2023-05-14T09:35:26.899Z,38.80
2023-05-14T09:38:15.247Z,38.90
2023-05-14T09:41:04.216Z,38.90
2023-05-14T09:43:52.824Z,39.53
2023-05-14T09:46:41.215Z,38.47
2023-05-14T09:49:31.028Z,37.67
2023-05-14T09:52:19.986Z,38.07
2023-05-14T09:55:09.289Z,40.27
2023-05-14T09:57:57.677Z,39.80
2023-05-14T10:00:47.751Z,44.17
2023-05-14T10:03:36.413Z,42.40
2023-05-14T10:06:28.914Z,39.67
2023-05-14T10:09:17.935Z,42.17
2023-05-14T10:12:07.343Z,40.77
2023-05-14T10:14:58.842Z,40.57
2023-05-14T10:17:50.704Z,40.77
2023-05-14T10:20:39.486Z,41.50
2023-05-14T10:23:29.272Z,42.13
2023-05-14T10:26:17.801Z,42.67
2023-05-14T10:29:06.154Z,42.90
2023-05-14T10:31:55.567Z,40.20
2023-05-14T10:34:44.882Z,43.30
2023-05-14T10:37:34.060Z,42.47
2023-05-14T10:40:26.190Z,42.70
2023-05-14T10:43:16.009Z,43.67
2023-05-14T10:46:05.261Z,43.07
2023-05-14T10:48:53.816Z,42.20
2023-05-14T10:51:42.378Z,41.87
2023-05-14T10:54:30.891Z,43.20
2023-05-14T10:57:21.296Z,42.20
2023-05-14T11:00:10.920Z,42.37
2023-05-14T11:02:59.652Z,42.17
2023-05-14T11:05:48.189Z,42.80
2023-05-14T11:08:36.590Z,42.70
2023-05-14T11:11:26.136Z,43.87
2023-05-14T11:14:15.875Z,42.70
2023-05-14T11:17:04.257Z,41.97
2023-05-14T11:19:52.717Z,43.20
2023-05-14T11:22:42.678Z,42.53
2023-05-14T11:25:31.227Z,43.50
2023-05-14T11:28:19.607Z,43.20
2023-05-14T11:31:09.286Z,43.23
2023-05-14T11:33:58.131Z,43.03
2023-05-14T11:36:46.711Z,42.97
2023-05-14T11:39:19.543Z,46.63
2023-05-14T11:41:47.607Z,42.27
2023-05-14T11:44:15.696Z,43.23
2023-05-14T11:47:05.034Z,41.03
2023-05-14T11:49:51.682Z,42.93
2023-05-14T11:52:40.279Z,43.23
2023-05-14T11:55:12.217Z,42.37
2023-05-14T11:57:58.984Z,42.63
2023-05-14T12:00:27.801Z,42.83
2023-05-14T12:02:57.407Z,43.67
2023-05-14T12:05:56.511Z,43.63
2023-05-14T12:08:27.666Z,42.93
2023-05-14T12:10:55.889Z,43.23
2023-05-14T12:13:27.337Z,43.60
2023-05-14T12:15:56.750Z,42.30
2023-05-14T12:18:44.679Z,42.97
2023-05-14T12:21:12.744Z,43.40
2023-05-14T12:23:40.976Z,43.70
2023-05-14T12:26:28.721Z,42.90
2023-05-14T12:29:17.619Z,42.60
2023-05-14T12:32:09.661Z,42.87
2023-05-14T12:34:47.270Z,42.57
2023-05-14T12:37:34.095Z,44.50
2023-05-14T12:40:02.227Z,42.60
2023-05-14T12:42:30.186Z,43.40
2023-05-14T12:44:58.510Z,42.27
2023-05-14T12:47:45.383Z,41.87
2023-05-14T12:50:14.884Z,41.90
2023-05-14T12:52:42.980Z,43.10
2023-05-14T12:55:29.515Z,43.17
2023-05-14T12:57:57.844Z,42.37
2023-05-14T13:00:27.081Z,42.13
2023-05-14T13:02:55.118Z,41.93
2023-05-14T13:05:24.731Z,41.87
2023-05-14T13:07:53.844Z,40.90
2023-05-14T13:10:23.152Z,41.47
2023-05-14T13:12:52.720Z,42.80
2023-05-14T13:15:20.845Z,41.10
2023-05-14T13:17:49.466Z,42.20
2023-05-14T13:20:18.410Z,41.43
2023-05-14T13:22:47.914Z,41.97
2023-05-14T13:25:16.132Z,41.80
2023-05-14T13:27:44.116Z,41.33
2023-05-14T13:30:12.817Z,40.30
2023-05-14T13:32:42.247Z,42.07
2023-05-14T13:35:10.739Z,42.60
2023-05-14T13:37:39.026Z,42.30
2023-05-14T13:40:11.348Z,41.60
2023-05-14T13:42:40.683Z,40.60
2023-05-14T13:45:09.626Z,40.50
2023-05-14T13:47:38.058Z,41.07
2023-05-14T13:50:07.704Z,40.60
2023-05-14T13:52:35.896Z,40.97
2023-05-14T13:55:04.014Z,40.40
2023-05-14T13:57:33.418Z,40.47
2023-05-14T14:00:01.646Z,38.93
2023-05-14T14:02:34.175Z,41.50
2023-05-14T14:05:02.396Z,40.20
2023-05-14T14:07:30.597Z,41.97
2023-05-14T14:10:01.466Z,40.67
2023-05-14T14:12:30.053Z,40.97
2023-05-14T14:14:59.576Z,40.80
2023-05-14T14:17:27.716Z,40.53
2023-05-14T14:19:55.756Z,40.30
2023-05-14T14:22:27.116Z,40.90
2023-05-14T14:24:57.056Z,40.30
2023-05-14T14:27:25.060Z,39.70
2023-05-14T14:29:53.065Z,41.30
2023-05-14T14:32:22.439Z,39.70
2023-05-14T14:34:50.422Z,39.90
2023-05-14T14:37:18.822Z,40.47
2023-05-14T14:39:47.634Z,40.33
2023-05-14T14:42:15.640Z,41.77
2023-05-14T14:44:43.653Z,42.23
2023-05-14T14:47:11.625Z,42.67
2023-05-14T14:49:41.013Z,42.37
2023-05-14T14:52:09.701Z,42.80
2023-05-14T14:54:37.766Z,42.97
2023-05-14T14:57:06.386Z,42.70
2023-05-14T14:59:36.260Z,44.43
2023-05-14T15:02:04.738Z,43.00
2023-05-14T15:04:34.752Z,43.40
2023-05-14T15:07:04.190Z,43.07
2023-05-14T15:09:32.386Z,42.30
2023-05-14T15:12:00.554Z,45.73
2023-05-14T15:14:28.683Z,42.80
2023-05-14T15:16:56.706Z,43.30
2023-05-14T15:19:24.771Z,43.97
2023-05-14T15:21:52.947Z,43.90
2023-05-14T15:24:23.975Z,44.30
2023-05-14T15:26:53.428Z,44.50
2023-05-14T15:29:22.439Z,43.37
2023-05-14T15:31:50.540Z,42.40
2023-05-14T15:34:18.577Z,41.77
2023-05-14T15:36:46.602Z,42.23
2023-05-14T15:39:14.724Z,42.83
2023-05-14T15:41:44.169Z,41.10
2023-05-14T15:44:12.210Z,42.03
2023-05-14T15:46:40.318Z,41.87
2023-05-14T15:49:09.200Z,40.30
2023-05-14T15:51:37.270Z,42.57
2023-05-14T15:54:05.312Z,42.13
2023-05-14T15:56:33.390Z,41.97
2023-05-14T15:59:03.300Z,41.50
2023-05-14T16:01:31.909Z,41.10
2023-05-14T16:04:00.062Z,41.17
2023-05-14T16:06:28.121Z,41.50
2023-05-14T16:08:57.217Z,41.70
2023-05-14T16:11:25.329Z,41.67
2023-05-14T16:13:53.352Z,41.67
2023-05-14T16:16:23.264Z,42.10
2023-05-14T16:18:51.328Z,41.57
2023-05-14T16:21:19.353Z,41.57
2023-05-14T16:23:47.415Z,41.57
2023-05-14T16:26:15.453Z,41.37
2023-05-14T16:28:43.521Z,41.23
2023-05-14T16:31:11.594Z,40.10
2023-05-14T16:33:41.076Z,41.40
2023-05-14T16:36:09.343Z,40.90
2023-05-14T16:38:44.546Z,40.70
2023-05-14T16:41:21.543Z,39.90
2023-05-14T16:43:51.175Z,42.23
2023-05-14T16:46:19.264Z,41.10
2023-05-14T16:48:50.612Z,42.03
2023-05-14T16:51:18.625Z,41.60
2023-05-14T16:53:46.775Z,44.00
2023-05-14T16:56:14.785Z,40.77
2023-05-14T16:58:42.977Z,40.67
2023-05-14T17:01:11.059Z,41.80
2023-05-14T17:03:39.134Z,44.20
2023-05-14T17:06:11.533Z,42.07
2023-05-14T17:08:39.563Z,42.17
2023-05-14T17:11:07.533Z,40.87
2023-05-14T17:13:35.700Z,40.70
2023-05-14T17:16:03.761Z,40.57
2023-05-14T17:18:32.688Z,41.77
2023-05-14T17:21:00.753Z,40.27
2023-05-14T17:23:30.130Z,40.60
2023-05-14T17:25:58.293Z,40.47
2023-05-14T17:28:28.067Z,40.57
2023-05-14T17:30:56.219Z,40.50
2023-05-14T17:33:24.306Z,42.47
2023-05-14T17:35:52.347Z,41.60
2023-05-14T17:38:20.372Z,40.93
2023-05-14T17:40:49.723Z,41.37
2023-05-14T17:43:17.767Z,41.43
2023-05-14T17:45:54.041Z,41.07
2023-05-14T17:48:23.227Z,40.90
2023-05-14T17:50:51.599Z,41.97
2023-05-14T17:53:19.726Z,41.37
2023-05-14T17:55:50.171Z,41.70
2023-05-14T17:58:18.256Z,40.50
2023-05-14T18:00:46.283Z,45.73
2023-05-14T18:03:15.156Z,42.03
2023-05-14T18:05:43.410Z,41.10
2023-05-14T18:08:11.684Z,39.97
2023-05-14T18:10:39.671Z,40.57
2023-05-14T18:13:09.191Z,40.97
2023-05-14T18:15:37.577Z,40.57
2023-05-14T18:18:06.456Z,40.27
2023-05-14T18:20:35.554Z,44.33
2023-05-14T18:23:03.896Z,40.47
2023-05-14T18:25:32.104Z,40.20
2023-05-14T18:28:00.363Z,40.37
2023-05-14T18:30:29.999Z,41.13
2023-05-14T18:32:59.634Z,40.77
2023-05-14T18:35:28.043Z,40.47
2023-05-14T18:37:56.317Z,39.40
2023-05-14T18:40:24.524Z,40.33
2023-05-14T18:42:52.729Z,40.17
2023-05-14T18:45:22.063Z,39.87
2023-05-14T18:47:51.805Z,40.77
2023-05-14T18:50:20.233Z,40.20
2023-05-14T18:52:48.376Z,40.33
2023-05-14T18:55:16.681Z,40.30
2023-05-14T18:57:44.852Z,39.77
2023-05-14T19:00:14.372Z,40.07
2023-05-14T19:02:42.757Z,40.27
2023-05-14T19:05:12.409Z,40.10
2023-05-14T19:07:40.954Z,40.47
2023-05-14T19:10:10.366Z,40.30
2023-05-14T19:12:38.544Z,39.67
2023-05-14T19:15:07.866Z,38.67
2023-05-14T19:17:37.068Z,39.13
2023-05-14T19:20:06.449Z,40.00
2023-05-14T19:22:36.020Z,40.17
2023-05-14T19:25:05.136Z,39.40
2023-05-14T19:27:34.210Z,39.33
2023-05-14T19:30:02.368Z,39.97
2023-05-14T19:32:30.512Z,40.07
2023-05-14T19:34:58.805Z,39.87
2023-05-14T19:37:26.971Z,41.37
2023-05-14T19:39:56.585Z,39.70
2023-05-14T19:42:25.011Z,40.83
2023-05-14T19:44:53.407Z,40.20
2023-05-14T19:47:21.574Z,40.87
2023-05-14T19:49:49.755Z,40.10
2023-05-14T19:52:17.926Z,39.10
2023-05-14T19:54:46.074Z,39.47
2023-05-14T19:57:15.652Z,39.40
2023-05-14T19:59:44.468Z,40.20
2023-05-14T20:02:18.373Z,40.37
2023-05-14T20:04:47.496Z,39.57
2023-05-14T20:07:16.370Z,40.17
2023-05-14T20:09:44.676Z,39.83
2023-05-14T20:12:13.324Z,41.13
2023-05-14T20:14:43.577Z,38.43
2023-05-14T20:17:11.819Z,39.10
2023-05-14T20:19:40.013Z,39.97
2023-05-14T20:22:08.193Z,39.97
2023-05-14T20:24:36.349Z,39.57
2023-05-14T20:27:04.635Z,40.80
2023-05-14T20:29:32.790Z,40.00
2023-05-14T20:32:02.354Z,39.60
2023-05-14T20:34:30.511Z,39.97
2023-05-14T20:36:58.690Z,39.90
2023-05-14T20:39:26.857Z,39.60
2023-05-14T20:41:55.113Z,38.27
2023-05-14T20:44:23.285Z,39.80
2023-05-14T20:46:51.628Z,39.77
2023-05-14T20:49:21.183Z,39.00
2023-05-14T20:51:49.324Z,38.07
2023-05-14T20:54:17.608Z,38.60
2023-05-14T20:56:45.782Z,39.20
2023-05-14T20:59:13.922Z,37.73
2023-05-14T21:01:42.669Z,39.07
2023-05-14T21:04:11.015Z,38.60
2023-05-14T21:06:40.605Z,38.27
2023-05-14T21:09:08.799Z,39.63
2023-05-14T21:11:36.995Z,39.20
2023-05-14T21:14:05.978Z,38.77
2023-05-14T21:16:34.208Z,38.43
2023-05-14T21:19:02.500Z,39.33
2023-05-14T21:21:30.851Z,39.10
2023-05-14T21:24:00.362Z,37.90
2023-05-14T21:26:32.731Z,39.57
2023-05-14T21:29:01.630Z,38.87
2023-05-14T21:31:29.964Z,38.70
2023-05-14T21:33:58.176Z,39.53
2023-05-14T21:36:26.435Z,38.77
2023-05-14T21:38:54.628Z,39.70
2023-05-14T21:41:24.326Z,37.90
2023-05-14T21:43:52.636Z,38.40
2023-05-14T21:46:20.870Z,38.80
2023-05-14T21:48:49.094Z,37.97
2023-05-14T21:51:17.371Z,37.67
2023-05-14T21:53:46.308Z,38.23
2023-05-14T21:56:14.531Z,37.27
2023-05-14T21:58:44.159Z,37.87
2023-05-14T22:01:12.466Z,36.77
2023-05-14T22:03:40.756Z,37.77
2023-05-14T22:06:09.023Z,38.13
2023-05-14T22:08:37.236Z,38.10
2023-05-14T22:11:05.705Z,38.87
2023-05-14T22:13:35.366Z,38.63
2023-05-14T22:16:12.786Z,38.47
2023-05-14T22:18:42.668Z,38.30
2023-05-14T22:21:10.928Z,38.40
2023-05-14T22:23:39.192Z,37.67
2023-05-14T22:26:07.395Z,38.17
2023-05-14T22:28:36.771Z,38.00
2023-05-14T22:31:06.437Z,38.50
2023-05-14T22:33:34.599Z,38.20
2023-05-14T22:36:03.293Z,37.50
2023-05-14T22:38:31.511Z,38.47
2023-05-14T22:40:59.797Z,38.80
2023-05-14T22:43:27.981Z,38.30
2023-05-14T22:45:56.122Z,37.80
2023-05-14T22:48:25.769Z,38.73
2023-05-14T22:50:53.933Z,38.20
2023-05-14T22:53:22.499Z,38.03
2023-05-14T22:55:51.519Z,37.67
2023-05-14T22:58:19.731Z,37.40
2023-05-14T23:00:47.996Z,39.20
2023-05-14T23:03:16.163Z,39.00
2023-05-14T23:05:45.665Z,37.37
2023-05-14T23:08:13.784Z,38.80
2023-05-14T23:10:42.025Z,37.77
2023-05-14T23:13:10.670Z,39.00
2023-05-14T23:15:39.732Z,36.57
2023-05-14T23:18:08.920Z,37.67
2023-05-14T23:20:37.112Z,39.37
2023-05-14T23:23:06.955Z,37.30
2023-05-14T23:25:35.145Z,39.40
2023-05-14T23:28:03.300Z,38.87
2023-05-14T23:30:31.498Z,37.40
2023-05-14T23:32:59.683Z,38.60
2023-05-14T23:35:28.002Z,38.03
2023-05-14T23:37:56.193Z,40.27
2023-05-14T23:40:25.788Z,39.67
2023-05-14T23:42:54.208Z,39.60
2023-05-14T23:45:22.568Z,38.10
2023-05-14T23:47:50.940Z,38.13
2023-05-14T23:50:19.144Z,38.93
2023-05-14T23:52:47.300Z,38.00
2023-05-14T23:55:15.774Z,37.97
2023-05-14T23:57:45.414Z,39.37
